< < Back
Terminal Aerodrome Forecast


Current Version              Previous Versions:   1  2  3  4  5  6  7  8  9  

Terminal Aerodrome Forecast

473
FTUS42 KCHS 220500
TAFSAV
TAF
KSAV 220534Z 2206/2306 36006KT 6SM BR OVC003
      TEMPO 2208/2212 3SM -RA BR SCT002 BKN005
     FM221200 01005KT 5SM -RADZ BR OVC004
     FM221800 04005KT 6SM -DZ BR OVC007
     FM230000 04005KT 2SM BR OVC004=



Latest METAR

330
SAUS80 KWBC 220500 RRA
MTRSAV
METAR KSAV 220453Z 35006KT 7SM OVC003 09/07 A3010 RMK AO2 SLP191 LAST
AUGMENTED OBSERVATION UNTIL 1100Z T00890072 401060083


USA.gov is the U.S. government's official web portal to all federal, state and local government web resources and services.